sensor_id;sensor_type;location;lat;lon;timestamp;pressure;altitude;pressure_sealevel;temperature;humidity
29909;BME280;36247;51.952;6.146;2022-07-29T00:00:28;101606.59;;;16.78;83.44
29909;BME280;36247;51.952;6.146;2022-07-29T00:02:54;101605.72;;;16.82;84.05
29909;BME280;36247;51.952;6.146;2022-07-29T00:05:20;101610.16;;;16.67;84.87
29909;BME280;36247;51.952;6.146;2022-07-29T00:07:45;101601.25;;;16.68;84.87
29909;BME280;36247;51.952;6.146;2022-07-29T00:10:10;101599.47;;;16.66;85.34
29909;BME280;36247;51.952;6.146;2022-07-29T00:12:36;101591.44;;;16.67;85.36
29909;BME280;36247;51.952;6.146;2022-07-29T00:15:02;101592.34;;;16.77;84.49
29909;BME280;36247;51.952;6.146;2022-07-29T00:17:28;101587.88;;;16.57;86.53
29909;BME280;36247;51.952;6.146;2022-07-29T00:19:53;101579.84;;;16.44;87.08
29909;BME280;36247;51.952;6.146;2022-07-29T00:22:20;101577.16;;;16.45;86.96
29909;BME280;36247;51.952;6.146;2022-07-29T00:24:47;101569.16;;;16.42;87.79
29909;BME280;36247;51.952;6.146;2022-07-29T00:27:13;101569.16;;;16.48;87.48
29909;BME280;36247;51.952;6.146;2022-07-29T00:29:38;101568.22;;;16.35;88.57
29909;BME280;36247;51.952;6.146;2022-07-29T00:32:04;101559.31;;;16.49;87.61
29909;BME280;36247;51.952;6.146;2022-07-29T00:34:30;101561.09;;;16.40;87.91
29909;BME280;36247;51.952;6.146;2022-07-29T00:37:14;101561.13;;;16.44;87.75
29909;BME280;36247;51.952;6.146;2022-07-29T00:39:40;101562.00;;;16.39;87.76
29909;BME280;36247;51.952;6.146;2022-07-29T00:42:06;101555.78;;;16.50;87.56
29909;BME280;36247;51.952;6.146;2022-07-29T00:46:50;101550.38;;;16.34;89.17
29909;BME280;36247;51.952;6.146;2022-07-29T00:49:15;101558.41;;;16.25;89.47
29909;BME280;36247;51.952;6.146;2022-07-29T00:51:41;101553.06;;;16.25;89.51
29909;BME280;36247;51.952;6.146;2022-07-29T00:54:06;101558.41;;;16.28;89.60
29909;BME280;36247;51.952;6.146;2022-07-29T00:56:33;101548.63;;;16.27;90.16
29909;BME280;36247;51.952;6.146;2022-07-29T00:59:00;101543.25;;;16.24;89.59
29909;BME280;36247;51.952;6.146;2022-07-29T01:01:26;101543.25;;;16.26;90.15
29909;BME280;36247;51.952;6.146;2022-07-29T01:03:52;101545.03;;;16.14;90.93
29909;BME280;36247;51.952;6.146;2022-07-29T01:06:18;101540.56;;;16.18;90.22
29909;BME280;36247;51.952;6.146;2022-07-29T01:08:48;101534.34;;;16.24;90.24
29909;BME280;36247;51.952;6.146;2022-07-29T01:11:16;101539.69;;;16.19;90.72
29909;BME280;36247;51.952;6.146;2022-07-29T01:13:44;101537.88;;;16.06;91.39
29909;BME280;36247;51.952;6.146;2022-07-29T01:16:17;101534.34;;;16.20;90.75
29909;BME280;36247;51.952;6.146;2022-07-29T01:18:47;101541.47;;;16.25;90.03
29909;BME280;36247;51.952;6.146;2022-07-29T01:21:27;101534.34;;;16.22;90.51
29909;BME280;36247;51.952;6.146;2022-07-29T01:27:21;101524.50;;;16.10;91.20
29909;BME280;36247;51.952;6.146;2022-07-29T01:29:54;101528.06;;;16.06;91.12
29909;BME280;36247;51.952;6.146;2022-07-29T01:32:25;101527.19;;;16.12;91.07
29909;BME280;36247;51.952;6.146;2022-07-29T01:35:17;101528.06;;;16.08;91.83
29909;BME280;36247;51.952;6.146;2022-07-29T01:37:47;101529.84;;;15.99;91.49
29909;BME280;36247;51.952;6.146;2022-07-29T01:40:24;101528.97;;;16.10;91.18
29909;BME280;36247;51.952;6.146;2022-07-29T01:42:55;101522.75;;;16.17;90.84
29909;BME280;36247;51.952;6.146;2022-07-29T01:45:40;101528.97;;;16.10;91.39
29909;BME280;36247;51.952;6.146;2022-07-29T01:48:13;101524.50;;;16.09;91.83
29909;BME280;36247;51.952;6.146;2022-07-29T01:50:47;101523.63;;;16.00;92.12
29909;BME280;36247;51.952;6.146;2022-07-29T01:53:21;101525.38;;;16.01;92.75
29909;BME280;36247;51.952;6.146;2022-07-29T01:55:50;101523.63;;;15.97;92.94
29909;BME280;36247;51.952;6.146;2022-07-29T01:58:19;101520.03;;;16.00;93.01
29909;BME280;36247;51.952;6.146;2022-07-29T02:00:46;101522.72;;;16.11;92.48
29909;BME280;36247;51.952;6.146;2022-07-29T02:03:14;101531.66;;;16.16;92.23
29909;BME280;36247;51.952;6.146;2022-07-29T02:05:42;101529.88;;;16.22;91.77
29909;BME280;36247;51.952;6.146;2022-07-29T02:08:11;101539.69;;;16.24;91.47
29909;BME280;36247;51.952;6.146;2022-07-29T02:10:40;101542.25;;;15.85;93.47
29909;BME280;36247;51.952;6.146;2022-07-29T02:13:07;101554.72;;;15.78;93.45
29909;BME280;36247;51.952;6.146;2022-07-29T02:15:35;101558.31;;;15.93;93.17
29909;BME280;36247;51.952;6.146;2022-07-29T02:18:05;101571.75;;;16.10;92.08
29909;BME280;36247;51.952;6.146;2022-07-29T02:20:33;101569.06;;;16.03;92.51
29909;BME280;36247;51.952;6.146;2022-07-29T02:23:00;101568.16;;;16.09;92.67
29909;BME280;36247;51.952;6.146;2022-07-29T02:25:27;101562.84;;;16.12;92.62
29909;BME280;36247;51.952;6.146;2022-07-29T02:27:53;101561.94;;;16.15;92.61
29909;BME280;36247;51.952;6.146;2022-07-29T02:30:21;101574.34;;;15.94;94.38
29909;BME280;36247;51.952;6.146;2022-07-29T02:32:49;101582.44;;;16.07;94.21
29909;BME280;36247;51.952;6.146;2022-07-29T02:35:15;101577.00;;;15.93;95.78
29909;BME280;36247;51.952;6.146;2022-07-29T02:37:44;101578.78;;;15.80;96.24
29909;BME280;36247;51.952;6.146;2022-07-29T02:40:11;101577.00;;;15.85;98.79
29909;BME280;36247;51.952;6.146;2022-07-29T02:42:41;101585.78;;;15.65;100.00
29909;BME280;36247;51.952;6.146;2022-07-29T02:45:09;101587.59;;;15.69;99.14
29909;BME280;36247;51.952;6.146;2022-07-29T02:47:39;101581.44;;;15.80;100.00
29909;BME280;36247;51.952;6.146;2022-07-29T02:50:17;101577.81;;;15.75;100.00
29909;BME280;36247;51.952;6.146;2022-07-29T02:52:52;101572.38;;;15.51;100.00
29909;BME280;36247;51.952;6.146;2022-07-29T02:55:26;101575.06;;;15.59;100.00
29909;BME280;36247;51.952;6.146;2022-07-29T03:00:22;101566.09;;;15.46;100.00
29909;BME280;36247;51.952;6.146;2022-07-29T03:02:52;101574.00;;;15.26;100.00
29909;BME280;36247;51.952;6.146;2022-07-29T03:05:20;101585.56;;;15.27;100.00
29909;BME280;36247;51.952;6.146;2022-07-29T03:07:55;101570.47;;;15.29;100.00
29909;BME280;36247;51.952;6.146;2022-07-29T03:10:23;101564.97;;;15.06;100.00
29909;BME280;36247;51.952;6.146;2022-07-29T03:12:51;101556.00;;;14.94;100.00
29909;BME280;36247;51.952;6.146;2022-07-29T03:15:18;101554.31;;;15.10;100.00
29909;BME280;36247;51.952;6.146;2022-07-29T03:17:44;101548.84;;;14.89;100.00
29909;BME280;36247;51.952;6.146;2022-07-29T03:20:11;101542.69;;;14.97;100.00
29909;BME280;36247;51.952;6.146;2022-07-29T03:22:41;101534.69;;;14.96;100.00
29909;BME280;36247;51.952;6.146;2022-07-29T03:25:17;101538.03;;;14.72;100.00
29909;BME280;36247;51.952;6.146;2022-07-29T03:27:45;101526.44;;;14.67;100.00
29909;BME280;36247;51.952;6.146;2022-07-29T03:30:12;101537.09;;;14.62;100.00
29909;BME280;36247;51.952;6.146;2022-07-29T03:32:38;101526.47;;;14.68;100.00
29909;BME280;36247;51.952;6.146;2022-07-29T03:35:04;101514.94;;;14.71;100.00
29909;BME280;36247;51.952;6.146;2022-07-29T03:37:30;101503.22;;;14.56;100.00
29909;BME280;36247;51.952;6.146;2022-07-29T03:39:57;101502.28;;;14.46;100.00
29909;BME280;36247;51.952;6.146;2022-07-29T03:42:29;101498.75;;;14.54;100.00
29909;BME280;36247;51.952;6.146;2022-07-29T03:47:23;101488.72;;;14.23;100.00
29909;BME280;36247;51.952;6.146;2022-07-29T03:49:52;101466.41;;;14.14;100.00
29909;BME280;36247;51.952;6.146;2022-07-29T03:52:18;101459.22;;;14.02;100.00
29909;BME280;36247;51.952;6.146;2022-07-29T03:54:44;101451.22;;;14.00;100.00
29909;BME280;36247;51.952;6.146;2022-07-29T03:57:11;101450.28;;;13.97;100.00
29909;BME280;36247;51.952;6.146;2022-07-29T03:59:37;101465.41;;;13.99;100.00
29909;BME280;36247;51.952;6.146;2022-07-29T04:04:24;101491.34;;;14.19;100.00
29909;BME280;36247;51.952;6.146;2022-07-29T04:06:50;101513.59;;;14.22;100.00
29909;BME280;36247;51.952;6.146;2022-07-29T04:09:15;101520.84;;;14.39;100.00
29909;BME280;36247;51.952;6.146;2022-07-29T04:11:42;101513.00;;;14.56;100.00
29909;BME280;36247;51.952;6.146;2022-07-29T04:14:08;101519.13;;;14.44;100.00
29909;BME280;36247;51.952;6.146;2022-07-29T04:18:47;101497.88;;;14.56;100.00
29909;BME280;36247;51.952;6.146;2022-07-29T04:21:12;101504.03;;;14.49;100.00
29909;BME280;36247;51.952;6.146;2022-07-29T04:23:38;101510.38;;;14.60;100.00
29909;BME280;36247;51.952;6.146;2022-07-29T04:26:03;101504.03;;;14.49;100.00
29909;BME280;36247;51.952;6.146;2022-07-29T04:28:29;101493.31;;;14.38;100.00
29909;BME280;36247;51.952;6.146;2022-07-29T04:30:55;101490.41;;;14.15;100.00
29909;BME280;36247;51.952;6.146;2022-07-29T04:33:20;101492.13;;;14.07;100.00
29909;BME280;36247;51.952;6.146;2022-07-29T04:35:45;101481.56;;;14.19;100.00
29909;BME280;36247;51.952;6.146;2022-07-29T04:38:11;101482.41;;;14.12;100.00
29909;BME280;36247;51.952;6.146;2022-07-29T04:40:36;101488.63;;;14.11;100.00
29909;BME280;36247;51.952;6.146;2022-07-29T04:43:02;101475.31;;;14.14;100.00
29909;BME280;36247;51.952;6.146;2022-07-29T04:45:28;101474.41;;;14.12;100.00
29909;BME280;36247;51.952;6.146;2022-07-29T04:47:54;101473.53;;;14.13;100.00
29909;BME280;36247;51.952;6.146;2022-07-29T04:50:20;101467.34;;;14.14;100.00
29909;BME280;36247;51.952;6.146;2022-07-29T04:52:45;101474.53;;;14.24;100.00
29909;BME280;36247;51.952;6.146;2022-07-29T04:55:11;101478.94;;;14.21;100.00
29909;BME280;36247;51.952;6.146;2022-07-29T04:57:36;101473.72;;;14.32;100.00
29909;BME280;36247;51.952;6.146;2022-07-29T05:00:04;101485.13;;;14.18;100.00
29909;BME280;36247;51.952;6.146;2022-07-29T05:02:29;101487.72;;;14.14;100.00
29909;BME280;36247;51.952;6.146;2022-07-29T05:04:55;101498.56;;;14.29;100.00
29909;BME280;36247;51.952;6.146;2022-07-29T05:07:21;101504.81;;;14.36;100.00
29909;BME280;36247;51.952;6.146;2022-07-29T05:09:46;101516.53;;;14.53;100.00
29909;BME280;36247;51.952;6.146;2022-07-29T05:12:12;101534.22;;;14.43;100.00
29909;BME280;36247;51.952;6.146;2022-07-29T05:14:38;101548.63;;;14.61;100.00
29909;BME280;36247;51.952;6.146;2022-07-29T05:17:04;101554.91;;;14.65;100.00
29909;BME280;36247;51.952;6.146;2022-07-29T05:19:29;101564.53;;;14.53;100.00
29909;BME280;36247;51.952;6.146;2022-07-29T05:21:55;101562.00;;;14.69;100.00
29909;BME280;36247;51.952;6.146;2022-07-29T05:24:20;101561.09;;;14.65;100.00
29909;BME280;36247;51.952;6.146;2022-07-29T05:26:46;101566.50;;;14.74;100.00
29909;BME280;36247;51.952;6.146;2022-07-29T05:29:11;101563.94;;;14.85;100.00
29909;BME280;36247;51.952;6.146;2022-07-29T05:31:36;101560.31;;;14.78;100.00
29909;BME280;36247;51.952;6.146;2022-07-29T05:34:02;101563.88;;;14.79;100.00
29909;BME280;36247;51.952;6.146;2022-07-29T05:36:27;101551.25;;;14.59;100.00
29909;BME280;36247;51.952;6.146;2022-07-29T05:38:53;101547.72;;;14.60;100.00
29909;BME280;36247;51.952;6.146;2022-07-29T05:41:19;101553.19;;;14.76;100.00
29909;BME280;36247;51.952;6.146;2022-07-29T05:43:45;101549.63;;;14.72;100.00
29909;BME280;36247;51.952;6.146;2022-07-29T05:46:10;101546.06;;;14.75;100.00
29909;BME280;36247;51.952;6.146;2022-07-29T05:48:36;101548.88;;;14.90;100.00
29909;BME280;36247;51.952;6.146;2022-07-29T05:51:02;101548.88;;;14.93;100.00
29909;BME280;36247;51.952;6.146;2022-07-29T05:53:27;101550.72;;;15.01;100.00
29909;BME280;36247;51.952;6.146;2022-07-29T05:55:53;101540.03;;;14.96;100.00
29909;BME280;36247;51.952;6.146;2022-07-29T05:58:18;101545.25;;;14.87;100.00
29909;BME280;36247;51.952;6.146;2022-07-29T06:00:44;101537.41;;;15.07;100.00
29909;BME280;36247;51.952;6.146;2022-07-29T06:03:10;101537.38;;;15.01;100.00
29909;BME280;36247;51.952;6.146;2022-07-29T06:05:35;101537.25;;;14.85;100.00
29909;BME280;36247;51.952;6.146;2022-07-29T06:08:01;101533.81;;;15.02;100.00
29909;BME280;36247;51.952;6.146;2022-07-29T06:10:26;101536.50;;;15.05;100.00
29909;BME280;36247;51.952;6.146;2022-07-29T06:12:52;101540.88;;;14.93;100.00
29909;BME280;36247;51.952;6.146;2022-07-29T06:15:17;101538.00;;;14.67;100.00
29909;BME280;36247;51.952;6.146;2022-07-29T06:17:44;101538.91;;;14.65;100.00
29909;BME280;36247;51.952;6.146;2022-07-29T06:20:09;101541.53;;;14.61;100.00
29909;BME280;36247;51.952;6.146;2022-07-29T06:22:35;101537.34;;;14.96;100.00
29909;BME280;36247;51.952;6.146;2022-07-29T06:25:02;101532.19;;;15.27;100.00
29909;BME280;36247;51.952;6.146;2022-07-29T06:27:28;101536.69;;;15.37;100.00
29909;BME280;36247;51.952;6.146;2022-07-29T06:29:56;101535.81;;;15.37;100.00
29909;BME280;36247;51.952;6.146;2022-07-29T06:32:21;101535.78;;;15.33;100.00
29909;BME280;36247;51.952;6.146;2022-07-29T06:34:47;101536.66;;;15.32;100.00
29909;BME280;36247;51.952;6.146;2022-07-29T06:37:12;101529.53;;;15.30;100.00
29909;BME280;36247;51.952;6.146;2022-07-29T06:39:38;101533.13;;;15.33;100.00
29909;BME280;36247;51.952;6.146;2022-07-29T06:42:04;101525.13;;;15.40;100.00
29909;BME280;36247;51.952;6.146;2022-07-29T06:44:30;101526.97;;;15.48;100.00
29909;BME280;36247;51.952;6.146;2022-07-29T06:46:56;101522.47;;;15.43;100.00
29909;BME280;36247;51.952;6.146;2022-07-29T06:49:22;101520.69;;;15.46;100.00
29909;BME280;36247;51.952;6.146;2022-07-29T06:51:49;101524.31;;;15.56;100.00
29909;BME280;36247;51.952;6.146;2022-07-29T06:54:14;101518.13;;;15.66;100.00
29909;BME280;36247;51.952;6.146;2022-07-29T06:56:40;101526.13;;;15.57;100.00
29909;BME280;36247;51.952;6.146;2022-07-29T06:59:11;101529.69;;;15.61;100.00
29909;BME280;36247;51.952;6.146;2022-07-29T07:01:38;101531.56;;;15.80;100.00
29909;BME280;36247;51.952;6.146;2022-07-29T07:04:04;101536.03;;;15.83;100.00
29909;BME280;36247;51.952;6.146;2022-07-29T07:06:30;101533.38;;;15.95;100.00
29909;BME280;36247;51.952;6.146;2022-07-29T07:08:56;101531.66;;;16.07;100.00
29909;BME280;36247;51.952;6.146;2022-07-29T07:11:21;101532.50;;;15.98;100.00
29909;BME280;36247;51.952;6.146;2022-07-29T07:13:47;101528.97;;;16.17;100.00
29909;BME280;36247;51.952;6.146;2022-07-29T07:16:12;101537.00;;;16.24;100.00
29909;BME280;36247;51.952;6.146;2022-07-29T07:18:38;101535.22;;;16.12;100.00
29909;BME280;36247;51.952;6.146;2022-07-29T07:21:03;101528.97;;;15.97;100.00
29909;BME280;36247;51.952;6.146;2022-07-29T07:23:30;101531.56;;;15.86;100.00
29909;BME280;36247;51.952;6.146;2022-07-29T07:25:56;101531.66;;;16.13;100.00
29909;BME280;36247;51.952;6.146;2022-07-29T07:28:21;101532.50;;;15.96;100.00
29909;BME280;36247;51.952;6.146;2022-07-29T07:30:47;101534.31;;;16.03;100.00
29909;BME280;36247;51.952;6.146;2022-07-29T07:33:12;101532.47;;;15.84;100.00
29909;BME280;36247;51.952;6.146;2022-07-29T07:35:38;101521.69;;;15.72;100.00
29909;BME280;36247;51.952;6.146;2022-07-29T07:38:04;101528.88;;;15.79;100.00
29909;BME280;36247;51.952;6.146;2022-07-29T07:40:31;101539.50;;;15.66;100.00
29909;BME280;36247;51.952;6.146;2022-07-29T07:42:56;101539.53;;;15.76;100.00
29909;BME280;36247;51.952;6.146;2022-07-29T07:45:22;101542.28;;;15.91;100.00
29909;BME280;36247;51.952;6.146;2022-07-29T07:47:47;101541.41;;;15.95;100.00
29909;BME280;36247;51.952;6.146;2022-07-29T07:50:13;101536.91;;;15.88;100.00
29909;BME280;36247;51.952;6.146;2022-07-29T07:52:50;101542.28;;;15.96;100.00
29909;BME280;36247;51.952;6.146;2022-07-29T07:55:16;101550.28;;;15.83;100.00
29909;BME280;36247;51.952;6.146;2022-07-29T07:57:42;101552.06;;;15.84;100.00
29909;BME280;36247;51.952;6.146;2022-07-29T08:00:08;101552.94;;;15.86;100.00
29909;BME280;36247;51.952;6.146;2022-07-29T08:02:38;101552.09;;;15.94;100.00
29909;BME280;36247;51.952;6.146;2022-07-29T08:05:05;101552.09;;;15.98;100.00
29909;BME280;36247;51.952;6.146;2022-07-29T08:07:31;101548.56;;;16.15;100.00
29909;BME280;36247;51.952;6.146;2022-07-29T08:09:57;101553.91;;;16.15;100.00
29909;BME280;36247;51.952;6.146;2022-07-29T08:12:22;101554.78;;;16.09;100.00
29909;BME280;36247;51.952;6.146;2022-07-29T08:14:47;101558.41;;;16.24;100.00
29909;BME280;36247;51.952;6.146;2022-07-29T08:17:13;101563.75;;;16.40;100.00
29909;BME280;36247;51.952;6.146;2022-07-29T08:19:38;101562.91;;;16.60;100.00
29909;BME280;36247;51.952;6.146;2022-07-29T08:22:04;101569.16;;;16.71;100.00
29909;BME280;36247;51.952;6.146;2022-07-29T08:24:29;101572.75;;;16.87;100.00
29909;BME280;36247;51.952;6.146;2022-07-29T08:27:13;101570.06;;;17.00;100.00
29909;BME280;36247;51.952;6.146;2022-07-29T08:29:39;101573.63;;;16.88;100.00
29909;BME280;36247;51.952;6.146;2022-07-29T08:32:05;101570.94;;;16.94;100.00
29909;BME280;36247;51.952;6.146;2022-07-29T08:34:31;101567.38;;;17.00;100.00
29909;BME280;36247;51.952;6.146;2022-07-29T08:36:57;101568.28;;;16.88;100.00
29909;BME280;36247;51.952;6.146;2022-07-29T08:39:22;101569.19;;;16.87;100.00
29909;BME280;36247;51.952;6.146;2022-07-29T08:41:48;101558.44;;;16.71;100.00
29909;BME280;36247;51.952;6.146;2022-07-29T08:44:16;101556.66;;;16.84;100.00
29909;BME280;36247;51.952;6.146;2022-07-29T08:46:42;101556.66;;;16.66;100.00
29909;BME280;36247;51.952;6.146;2022-07-29T08:49:09;101557.56;;;16.71;100.00
29909;BME280;36247;51.952;6.146;2022-07-29T08:51:36;101570.94;;;16.65;100.00
29909;BME280;36247;51.952;6.146;2022-07-29T08:54:03;101561.13;;;16.71;100.00
29909;BME280;36247;51.952;6.146;2022-07-29T08:56:28;101567.38;;;16.78;100.00
29909;BME280;36247;51.952;6.146;2022-07-29T08:58:55;101573.63;;;16.60;100.00
29909;BME280;36247;51.952;6.146;2022-07-29T09:01:25;101570.06;;;16.72;100.00
29909;BME280;36247;51.952;6.146;2022-07-29T09:03:54;101572.69;;;16.66;100.00
29909;BME280;36247;51.952;6.146;2022-07-29T09:06:21;101578.97;;;16.77;100.00
29909;BME280;36247;51.952;6.146;2022-07-29T09:08:47;101583.44;;;16.84;100.00
29909;BME280;36247;51.952;6.146;2022-07-29T09:11:13;101589.66;;;16.85;100.00
29909;BME280;36247;51.952;6.146;2022-07-29T09:13:39;101587.00;;;17.08;100.00
29909;BME280;36247;51.952;6.146;2022-07-29T09:16:05;101591.47;;;16.89;100.00
29909;BME280;36247;51.952;6.146;2022-07-29T09:18:39;101607.50;;;16.86;100.00
29909;BME280;36247;51.952;6.146;2022-07-29T09:21:06;101603.03;;;16.82;100.00
29909;BME280;36247;51.952;6.146;2022-07-29T09:24:00;101592.34;;;16.83;100.00
29909;BME280;36247;51.952;6.146;2022-07-29T09:26:31;101585.22;;;17.01;100.00
29909;BME280;36247;51.952;6.146;2022-07-29T09:28:57;101575.41;;;17.17;100.00
29909;BME280;36247;51.952;6.146;2022-07-29T09:31:33;101571.84;;;16.99;100.00
29909;BME280;36247;51.952;6.146;2022-07-29T09:33:59;101587.84;;;17.25;100.00
29909;BME280;36247;51.952;6.146;2022-07-29T09:36:25;101592.16;;;17.84;100.00
29909;BME280;36247;51.952;6.146;2022-07-29T09:39:01;101591.09;;;18.22;100.00
29909;BME280;36247;51.952;6.146;2022-07-29T09:41:27;101587.22;;;18.64;99.01
29909;BME280;36247;51.952;6.146;2022-07-29T09:43:56;101595.47;;;19.45;96.94
29909;BME280;36247;51.952;6.146;2022-07-29T09:46:23;101601.38;;;20.43;95.76
29909;BME280;36247;51.952;6.146;2022-07-29T09:49:09;101602.28;;;19.79;92.01
29909;BME280;36247;51.952;6.146;2022-07-29T09:51:35;101592.81;;;20.15;89.52
29909;BME280;36247;51.952;6.146;2022-07-29T09:54:01;101596.81;;;19.86;89.13
29909;BME280;36247;51.952;6.146;2022-07-29T09:56:42;101592.13;;;20.65;89.57
29909;BME280;36247;51.952;6.146;2022-07-29T09:59:08;101585.19;;;20.48;91.94
29909;BME280;36247;51.952;6.146;2022-07-29T10:01:34;101588.00;;;20.39;91.78
29909;BME280;36247;51.952;6.146;2022-07-29T10:04:01;101585.19;;;20.50;88.56
29909;BME280;36247;51.952;6.146;2022-07-29T10:06:26;101583.22;;;21.14;87.99
29909;BME280;36247;51.952;6.146;2022-07-29T10:08:52;101585.34;;;22.68;84.06
29909;BME280;36247;51.952;6.146;2022-07-29T10:11:18;101581.03;;;22.22;84.13
29909;BME280;36247;51.952;6.146;2022-07-29T10:13:46;101586.66;;;21.71;84.58
29909;BME280;36247;51.952;6.146;2022-07-29T10:16:13;101581.06;;;21.80;82.89
29909;BME280;36247;51.952;6.146;2022-07-29T10:18:43;101581.56;;;21.55;83.22
29909;BME280;36247;51.952;6.146;2022-07-29T10:21:09;101578.59;;;21.67;84.45
29909;BME280;36247;51.952;6.146;2022-07-29T10:23:35;101577.38;;;21.84;83.55
29909;BME280;36247;51.952;6.146;2022-07-29T10:26:02;101569.56;;;22.87;81.07
29909;BME280;36247;51.952;6.146;2022-07-29T10:28:30;101564.91;;;22.58;79.83
29909;BME280;36247;51.952;6.146;2022-07-29T10:31:03;101565.34;;;23.45;81.02
29909;BME280;36247;51.952;6.146;2022-07-29T10:36:23;101569.53;;;22.14;82.03
29909;BME280;36247;51.952;6.146;2022-07-29T10:42:02;101562.31;;;23.88;76.07
29909;BME280;36247;51.952;6.146;2022-07-29T10:44:32;101567.22;;;23.74;76.73
29909;BME280;36247;51.952;6.146;2022-07-29T10:46:58;101566.56;;;22.64;80.28
29909;BME280;36247;51.952;6.146;2022-07-29T10:49:25;101577.09;;;22.75;78.13
29909;BME280;36247;51.952;6.146;2022-07-29T10:54:18;101573.41;;;22.79;76.60
29909;BME280;36247;51.952;6.146;2022-07-29T10:56:44;101580.44;;;23.20;79.11
29909;BME280;36247;51.952;6.146;2022-07-29T11:01:52;101565.28;;;23.48;80.54
29909;BME280;36247;51.952;6.146;2022-07-29T11:07:10;101564.84;;;23.30;72.57
29909;BME280;36247;51.952;6.146;2022-07-29T11:09:36;101562.00;;;23.99;73.86
29909;BME280;36247;51.952;6.146;2022-07-29T11:12:02;101564.28;;;23.82;75.86
29909;BME280;36247;51.952;6.146;2022-07-29T11:17:17;101563.56;;;23.44;72.58
29909;BME280;36247;51.952;6.146;2022-07-29T11:19:42;101569.22;;;22.65;72.83
29909;BME280;36247;51.952;6.146;2022-07-29T11:22:10;101563.66;;;22.35;74.85
29909;BME280;36247;51.952;6.146;2022-07-29T11:24:37;101565.06;;;22.52;73.75
29909;BME280;36247;51.952;6.146;2022-07-29T11:27:17;101568.53;;;22.57;75.13
29909;BME280;36247;51.952;6.146;2022-07-29T11:32:19;101567.59;;;22.94;76.04
29909;BME280;36247;51.952;6.146;2022-07-29T11:34:50;101570.22;;;22.97;74.38
29909;BME280;36247;51.952;6.146;2022-07-29T11:37:34;101570.13;;;22.27;75.76
29909;BME280;36247;51.952;6.146;2022-07-29T11:47:39;101566.78;;;22.91;72.83
29909;BME280;36247;51.952;6.146;2022-07-29T11:50:09;101563.97;;;23.30;70.71
29909;BME280;36247;51.952;6.146;2022-07-29T11:52:37;101561.63;;;23.80;71.16
29909;BME280;36247;51.952;6.146;2022-07-29T11:55:10;101559.03;;;24.07;69.98
29909;BME280;36247;51.952;6.146;2022-07-29T11:57:45;101558.22;;;23.42;72.04
29909;BME280;36247;51.952;6.146;2022-07-29T12:00:12;101555.31;;;24.11;72.24
29909;BME280;36247;51.952;6.146;2022-07-29T12:02:45;101554.25;;;24.43;69.37
29909;BME280;36247;51.952;6.146;2022-07-29T12:05:10;101555.19;;;25.23;67.34
29909;BME280;36247;51.952;6.146;2022-07-29T12:07:37;101551.44;;;26.45;62.20
29909;BME280;36247;51.952;6.146;2022-07-29T12:10:04;101554.63;;;26.99;53.16
29909;BME280;36247;51.952;6.146;2022-07-29T12:12:30;101542.88;;;27.40;49.77
29909;BME280;36247;51.952;6.146;2022-07-29T12:14:56;101546.00;;;27.70;47.37
29909;BME280;36247;51.952;6.146;2022-07-29T12:17:39;101540.38;;;28.49;52.66
29909;BME280;36247;51.952;6.146;2022-07-29T12:20:06;101547.66;;;28.49;48.85
29909;BME280;36247;51.952;6.146;2022-07-29T12:22:33;101551.69;;;27.04;48.47
29909;BME280;36247;51.952;6.146;2022-07-29T12:25:07;101543.75;;;27.40;50.67
29909;BME280;36247;51.952;6.146;2022-07-29T12:27:35;101540.38;;;28.49;47.50
29909;BME280;36247;51.952;6.146;2022-07-29T12:30:15;101539.28;;;28.17;46.76
29909;BME280;36247;51.952;6.146;2022-07-29T12:32:46;101544.16;;;27.90;47.80
29909;BME280;36247;51.952;6.146;2022-07-29T12:35:18;101543.25;;;28.65;46.34
29909;BME280;36247;51.952;6.146;2022-07-29T12:37:47;101545.34;;;28.95;44.93
29909;BME280;36247;51.952;6.146;2022-07-29T12:40:14;101546.13;;;28.43;42.73
29909;BME280;36247;51.952;6.146;2022-07-29T12:43:45;101545.69;;;29.73;44.15
29909;BME280;36247;51.952;6.146;2022-07-29T12:45:55;101540.81;;;29.96;42.48
29909;BME280;36247;51.952;6.146;2022-07-29T12:48:38;101540.50;;;29.53;40.36
29909;BME280;36247;51.952;6.146;2022-07-29T12:51:04;101536.25;;;29.63;42.98
29909;BME280;36247;51.952;6.146;2022-07-29T12:53:31;101539.97;;;30.12;39.24
29909;BME280;36247;51.952;6.146;2022-07-29T12:55:58;101546.72;;;28.50;42.49
29909;BME280;36247;51.952;6.146;2022-07-29T13:01:17;101537.00;;;29.16;43.74
29909;BME280;36247;51.952;6.146;2022-07-29T13:08:59;101524.78;;;30.22;39.18
29909;BME280;36247;51.952;6.146;2022-07-29T13:11:33;101529.38;;;29.89;38.04
29909;BME280;36247;51.952;6.146;2022-07-29T13:13:59;101528.16;;;29.95;38.73
29909;BME280;36247;51.952;6.146;2022-07-29T13:16:25;101535.16;;;30.63;38.57
29909;BME280;36247;51.952;6.146;2022-07-29T13:19:05;101532.38;;;31.09;38.81
29909;BME280;36247;51.952;6.146;2022-07-29T13:21:31;101542.56;;;30.61;35.96
29909;BME280;36247;51.952;6.146;2022-07-29T13:23:57;101532.84;;;30.71;36.90
29909;BME280;36247;51.952;6.146;2022-07-29T13:26:22;101532.75;;;31.62;38.44
29909;BME280;36247;51.952;6.146;2022-07-29T13:28:48;101532.00;;;31.16;36.66
29909;BME280;36247;51.952;6.146;2022-07-29T13:31:13;101531.28;;;31.57;37.12
29909;BME280;36247;51.952;6.146;2022-07-29T13:33:38;101529.66;;;31.96;36.20
29909;BME280;36247;51.952;6.146;2022-07-29T13:36:04;101531.47;;;31.68;33.89
29909;BME280;36247;51.952;6.146;2022-07-29T13:38:30;101530.09;;;32.31;34.44